PWSweather.com
Personal Weather Stations
Station Observations
PENICUIKWS
PenicuikGB

PenicuikGB

Lat: 55.830932, Lon: -3.224533000000065

Elevation: 166

Station Type: Fine Offset

http://weather.penicuik.org

Latest ConditionsUpdated 10:30:02 PM GMT Wednesday, Dec 12, 2018
Currently Today's Max Today's Min Today's Average
Temperature 34.7°F1.5°C 45.1°F7.3°C 34.7°F1.5°C 42.6°F5.9°C
Dew Point 26.6°F-3.0°C 39.7°F4.3°C 26.6°F-3.0°C 36.2°F2.3°C
Winds 1.6 mph ENE2.6 kmh ENE 10.7 mph -17.2 kmh - - 5.7 mph 9.2 kmh
Wind Gusts 5.4 mph8.7 kmh 16.8 mph27.0 kmh - -
Humidity 72% 84% 70% 78%
Pressure 30.06 in1017.9 mb 30.14 in1020.7 mb 30.05 in1017.6 mb -
Hour Temp Dew Point Humidity Winds Wind Gusts Pressure Precip Precip Rate Daily Precip Total
10:30 PM 34.7°F1.5°C 26.6°F-3.0°C 72% 1.6 mph ENE2.6 kmh ENE 5.4 mph8.7 kmh 30.06 in1017.9 mb 0.00 in0.0 mm 0.00 in0.0 mm 0.00 in0.0 mm
10:15 PM 35.2°F1.8°C 27.1°F-2.7°C 72% 1.2 mph NW1.9 kmh NW 2.0 mph3.2 kmh 30.05 in1017.6 mb 0.00 in0.0 mm 0.00 in0.0 mm 0.00 in0.0 mm
10:00 PM 35.2°F1.8°C 27.5°F-2.5°C 73% 1.5 mph NE2.4 kmh NE 3.1 mph5.0 kmh 30.06 in1017.9 mb 0.00 in0.0 mm 0.00 in0.0 mm 0.00 in0.0 mm
09:45 PM 36.3°F2.4°C 27.8°F-2.3°C 71% 1.9 mph NNE3.1 kmh NNE 2.2 mph3.5 kmh 30.06 in1017.9 mb 0.00 in0.0 mm 0.00 in0.0 mm 0.00 in0.0 mm
09:30 PM 36.5°F2.5°C 27.7°F-2.4°C 70% 1.0 mph N1.6 kmh N 4.5 mph7.2 kmh 30.07 in1018.3 mb 0.00 in0.0 mm 0.00 in0.0 mm 0.00 in0.0 mm
09:15 PM 38.1°F3.4°C 30.2°F-1.0°C 73% 4.2 mph S6.8 kmh S 6.9 mph11.1 kmh 30.06 in1017.9 mb 0.00 in0.0 mm 0.00 in0.0 mm 0.00 in0.0 mm
09:00 PM 38.5°F3.6°C 30.6°F-0.8°C 73% 5.0 mph S8.0 kmh S 6.9 mph11.1 kmh 30.06 in1017.9 mb 0.00 in0.0 mm 0.00 in0.0 mm 0.00 in0.0 mm
08:45 PM 38.8°F3.8°C 30.9°F-0.6°C 73% 7.4 mph S11.9 kmh S 9.8 mph15.8 kmh 30.08 in1018.6 mb 0.00 in0.0 mm 0.00 in0.0 mm 0.00 in0.0 mm
08:30 PM 38.5°F3.6°C 31.3°F-0.4°C 75% 8.8 mph SSE14.2 kmh SSE 12.1 mph19.5 kmh 30.08 in1018.6 mb 0.00 in0.0 mm 0.00 in0.0 mm 0.00 in0.0 mm
08:15 PM 39.0°F3.9°C 31.4°F-0.3°C 74% 8.0 mph SSE12.9 kmh SSE 9.2 mph14.8 kmh 30.07 in1018.3 mb 0.00 in0.0 mm 0.00 in0.0 mm 0.00 in0.0 mm
08:00 PM 39.4°F4.1°C 31.5°F-0.3°C 73% 9.2 mph S14.8 kmh S 11.4 mph18.3 kmh 30.07 in1018.3 mb 0.00 in0.0 mm 0.00 in0.0 mm 0.00 in0.0 mm
07:45 PM 39.7°F4.3°C 32.1°F0.1°C 74% 9.8 mph S15.8 kmh S 11.4 mph18.3 kmh 30.07 in1018.3 mb 0.00 in0.0 mm 0.00 in0.0 mm 0.00 in0.0 mm
07:30 PM 40.3°F4.6°C 33.0°F0.6°C 75% 10.7 mph S17.2 kmh S 13.6 mph21.9 kmh 30.07 in1018.3 mb 0.00 in0.0 mm 0.00 in0.0 mm 0.00 in0.0 mm
07:15 PM 40.5°F4.7°C 33.2°F0.7°C 75% 9.5 mph SSE15.3 kmh SSE 12.1 mph19.5 kmh 30.07 in1018.3 mb 0.00 in0.0 mm 0.00 in0.0 mm 0.00 in0.0 mm
07:00 PM 40.6°F4.8°C 33.7°F0.9°C 76% 9.6 mph SE15.4 kmh SE 13.6 mph21.9 kmh 30.07 in1018.3 mb 0.00 in0.0 mm 0.00 in0.0 mm 0.00 in0.0 mm
06:45 PM 41.4°F5.2°C 34.0°F1.1°C 75% 9.4 mph S15.1 kmh S 11.4 mph18.3 kmh 30.07 in1018.3 mb 0.00 in0.0 mm 0.00 in0.0 mm 0.00 in0.0 mm
06:30 PM 41.7°F5.4°C 34.4°F1.3°C 75% 9.7 mph S15.6 kmh S 14.5 mph23.3 kmh 30.07 in1018.3 mb 0.00 in0.0 mm 0.00 in0.0 mm 0.00 in0.0 mm
06:15 PM 42.3°F5.7°C 34.9°F1.6°C 75% 9.7 mph SSE15.6 kmh SSE 12.1 mph19.5 kmh 30.06 in1017.9 mb 0.00 in0.0 mm 0.00 in0.0 mm 0.00 in0.0 mm
06:00 PM 42.4°F5.8°C 35.8°F2.1°C 77% 9.7 mph S15.6 kmh S 13.6 mph21.9 kmh 30.07 in1018.3 mb 0.00 in0.0 mm 0.00 in0.0 mm 0.00 in0.0 mm
05:45 PM 42.4°F5.8°C 36.1°F2.3°C 78% 10.5 mph S16.9 kmh S 13.6 mph21.9 kmh 30.06 in1017.9 mb 0.00 in0.0 mm 0.00 in0.0 mm 0.00 in0.0 mm
05:30 PM 42.8°F6.0°C 36.1°F2.3°C 77% 8.8 mph S14.2 kmh S 12.1 mph19.5 kmh 30.06 in1017.9 mb 0.00 in0.0 mm 0.00 in0.0 mm 0.00 in0.0 mm
05:15 PM 42.8°F6.0°C 36.1°F2.3°C 77% 10.6 mph SW17.1 kmh SW 16.8 mph27.0 kmh 30.07 in1018.3 mb 0.00 in0.0 mm 0.00 in0.0 mm 0.00 in0.0 mm
05:00 PM 43.0°F6.1°C 36.3°F2.4°C 77% 8.1 mph S13.0 kmh S 9.8 mph15.8 kmh 30.07 in1018.3 mb 0.00 in0.0 mm 0.00 in0.0 mm 0.00 in0.0 mm
04:45 PM 43.0°F6.1°C 36.6°F2.6°C 78% 6.5 mph S10.5 kmh S 9.2 mph14.8 kmh 30.08 in1018.6 mb 0.00 in0.0 mm 0.00 in0.0 mm 0.00 in0.0 mm
04:30 PM 42.8°F6.0°C 36.7°F2.6°C 79% 4.8 mph S7.7 kmh S 6.9 mph11.1 kmh 30.09 in1019.0 mb 0.00 in0.0 mm 0.00 in0.0 mm 0.00 in0.0 mm
04:15 PM 42.4°F5.8°C 36.7°F2.6°C 80% 3.2 mph SW5.1 kmh SW 4.5 mph7.2 kmh 30.08 in1018.6 mb 0.00 in0.0 mm 0.00 in0.0 mm 0.00 in0.0 mm
04:00 PM 42.3°F5.7°C 36.2°F2.3°C 79% 5.3 mph S8.5 kmh S 8.3 mph13.4 kmh 30.09 in1019.0 mb 0.00 in0.0 mm 0.00 in0.0 mm 0.00 in0.0 mm
03:45 PM 42.8°F6.0°C 36.1°F2.3°C 77% 6.9 mph S11.1 kmh S 8.3 mph13.4 kmh 30.08 in1018.6 mb 0.00 in0.0 mm 0.00 in0.0 mm 0.00 in0.0 mm
03:30 PM 43.0°F6.1°C 36.3°F2.4°C 77% 6.0 mph SE9.7 kmh SE 9.2 mph14.8 kmh 30.08 in1018.6 mb 0.00 in0.0 mm 0.00 in0.0 mm 0.00 in0.0 mm
03:15 PM 43.3°F6.3°C 36.3°F2.4°C 76% 4.1 mph S6.6 kmh S 6.9 mph11.1 kmh 30.08 in1018.6 mb 0.00 in0.0 mm 0.00 in0.0 mm 0.00 in0.0 mm
03:00 PM 44.1°F6.7°C 36.7°F2.6°C 75% 1.8 mph SSE2.9 kmh SSE 2.2 mph3.5 kmh 30.08 in1018.6 mb 0.00 in0.0 mm 0.00 in0.0 mm 0.00 in0.0 mm
02:45 PM 44.4°F6.9°C 37.0°F2.8°C 75% 2.2 mph ENE3.5 kmh ENE 3.1 mph5.0 kmh 30.09 in1019.0 mb 0.00 in0.0 mm 0.00 in0.0 mm 0.00 in0.0 mm
02:30 PM 44.8°F7.1°C 36.7°F2.6°C 73% 1.8 mph NE2.9 kmh NE 3.1 mph5.0 kmh 30.09 in1019.0 mb 0.00 in0.0 mm 0.00 in0.0 mm 0.00 in0.0 mm
02:15 PM 45.0°F7.2°C 36.8°F2.7°C 73% 2.8 mph SE4.5 kmh SE 5.4 mph8.7 kmh 30.09 in1019.0 mb 0.00 in0.0 mm 0.00 in0.0 mm 0.00 in0.0 mm
02:00 PM 45.1°F7.3°C 37.4°F3.0°C 74% 2.2 mph NE3.5 kmh NE 3.1 mph5.0 kmh 30.10 in1019.3 mb 0.00 in0.0 mm 0.00 in0.0 mm 0.00 in0.0 mm
01:45 PM 45.1°F7.3°C 37.4°F3.0°C 74% 3.0 mph SE4.8 kmh SE 4.5 mph7.2 kmh 30.09 in1019.0 mb 0.00 in0.0 mm 0.00 in0.0 mm 0.00 in0.0 mm
01:30 PM 45.0°F7.2°C 37.5°F3.1°C 75% 6.7 mph S10.8 kmh S 13.0 mph20.9 kmh 30.11 in1019.6 mb 0.00 in0.0 mm 0.00 in0.0 mm 0.00 in0.0 mm
01:15 PM 45.0°F7.2°C 37.5°F3.1°C 75% 8.6 mph S13.8 kmh S 13.0 mph20.9 kmh 30.10 in1019.3 mb 0.00 in0.0 mm 0.00 in0.0 mm 0.00 in0.0 mm
01:00 PM 45.1°F7.3°C 37.7°F3.2°C 75% 9.8 mph S15.8 kmh S 14.5 mph23.3 kmh 30.10 in1019.3 mb 0.00 in0.0 mm 0.00 in0.0 mm 0.00 in0.0 mm
12:45 PM 45.0°F7.2°C 37.9°F3.3°C 76% 8.8 mph SSE14.2 kmh SSE 13.0 mph20.9 kmh 30.10 in1019.3 mb 0.00 in0.0 mm 0.00 in0.0 mm 0.00 in0.0 mm
12:30 PM 45.0°F7.2°C 37.9°F3.3°C 76% 2.7 mph S4.3 kmh S 6.0 mph9.7 kmh 30.12 in1020.0 mb 0.00 in0.0 mm 0.00 in0.0 mm 0.00 in0.0 mm
12:15 PM 44.8°F7.1°C 37.7°F3.2°C 76% 6.1 mph S9.8 kmh S 8.3 mph13.4 kmh 30.11 in1019.6 mb 0.00 in0.0 mm 0.00 in0.0 mm 0.00 in0.0 mm
12:00 PM 44.8°F7.1°C 38.0°F3.3°C 77% 5.2 mph S8.4 kmh S 7.6 mph12.2 kmh 30.11 in1019.6 mb 0.00 in0.0 mm 0.00 in0.0 mm 0.00 in0.0 mm
11:45 AM 44.2°F6.8°C 38.1°F3.4°C 79% 5.7 mph S9.2 kmh S 8.3 mph13.4 kmh 30.12 in1020.0 mb 0.00 in0.0 mm 0.00 in0.0 mm 0.00 in0.0 mm
11:30 AM 43.7°F6.5°C 37.6°F3.1°C 79% 4.4 mph S7.1 kmh S 6.9 mph11.1 kmh 30.11 in1019.6 mb 0.00 in0.0 mm 0.00 in0.0 mm 0.00 in0.0 mm
11:15 AM 43.5°F6.4°C 37.4°F3.0°C 79% 6.1 mph S9.8 kmh S 8.3 mph13.4 kmh 30.12 in1020.0 mb 0.00 in0.0 mm 0.00 in0.0 mm 0.00 in0.0 mm
11:00 AM 43.5°F6.4°C 37.4°F3.0°C 79% 7.0 mph S11.3 kmh S 9.2 mph14.8 kmh 30.13 in1020.3 mb 0.00 in0.0 mm 0.00 in0.0 mm 0.00 in0.0 mm
10:45 AM 43.5°F6.4°C 37.4°F3.0°C 79% 7.8 mph S12.6 kmh S 9.2 mph14.8 kmh 30.13 in1020.3 mb 0.00 in0.0 mm 0.00 in0.0 mm 0.00 in0.0 mm
10:30 AM 43.7°F6.5°C 37.6°F3.1°C 79% 3.4 mph SSE5.5 kmh SSE 5.4 mph8.7 kmh 30.13 in1020.3 mb 0.00 in0.0 mm 0.00 in0.0 mm 0.00 in0.0 mm
10:15 AM 43.3°F6.3°C 37.3°F2.9°C 79% 4.8 mph SW7.7 kmh SW 7.6 mph12.2 kmh 30.14 in1020.7 mb 0.00 in0.0 mm 0.00 in0.0 mm 0.00 in0.0 mm
10:00 AM 43.0°F6.1°C 37.2°F2.9°C 80% 5.8 mph SSE9.3 kmh SSE 7.6 mph12.2 kmh 30.13 in1020.3 mb 0.00 in0.0 mm 0.00 in0.0 mm 0.00 in0.0 mm
09:45 AM 43.0°F6.1°C 37.2°F2.9°C 80% 6.9 mph S11.1 kmh S 9.2 mph14.8 kmh 30.14 in1020.7 mb 0.00 in0.0 mm 0.00 in0.0 mm 0.00 in0.0 mm
09:30 AM 43.0°F6.1°C 37.2°F2.9°C 80% 8.1 mph SSE13.0 kmh SSE 11.4 mph18.3 kmh 30.13 in1020.3 mb 0.00 in0.0 mm 0.00 in0.0 mm 0.00 in0.0 mm
09:29 AM 43.0°F6.1°C 37.2°F2.9°C 80% 8.2 mph SSE13.2 kmh SSE 11.4 mph18.3 kmh 30.13 in1020.3 mb 0.00 in0.0 mm 0.00 in0.0 mm 0.00 in0.0 mm
09:15 AM 42.8°F6.0°C 37.4°F3.0°C 81% 9.3 mph S15.0 kmh S 13.6 mph21.9 kmh 30.12 in1020.0 mb 0.00 in0.0 mm 0.00 in0.0 mm 0.00 in0.0 mm
09:01 AM 42.4°F5.8°C 37.7°F3.2°C 83% 8.0 mph SE12.9 kmh SE 11.4 mph18.3 kmh 30.13 in1020.3 mb 0.00 in0.0 mm 0.00 in0.0 mm 0.00 in0.0 mm
09:00 AM 42.4°F5.8°C 37.7°F3.2°C 83% 7.6 mph SE12.2 kmh SE 11.4 mph18.3 kmh 30.12 in1020.0 mb 0.00 in0.0 mm 0.00 in0.0 mm 0.00 in0.0 mm
08:30 AM 41.9°F5.5°C 37.1°F2.8°C 83% 5.2 mph SE8.4 kmh SE 6.9 mph11.1 kmh 30.12 in1020.0 mb 0.00 in0.0 mm 0.00 in0.0 mm 0.00 in0.0 mm
08:15 AM 42.3°F5.7°C 37.5°F3.1°C 83% 7.3 mph SSE11.7 kmh SSE 10.7 mph17.2 kmh 30.12 in1020.0 mb 0.00 in0.0 mm 0.00 in0.0 mm 0.00 in0.0 mm
08:00 AM 43.0°F6.1°C 37.6°F3.1°C 81% 7.4 mph S11.9 kmh S 9.2 mph14.8 kmh 30.11 in1019.6 mb 0.00 in0.0 mm 0.00 in0.0 mm 0.00 in0.0 mm
07:30 AM 44.4°F6.9°C 39.0°F3.9°C 81% 7.0 mph SW11.3 kmh SW 9.2 mph14.8 kmh 30.11 in1019.6 mb 0.00 in0.0 mm 0.00 in0.0 mm 0.00 in0.0 mm
07:29 AM 44.4°F6.9°C 39.0°F3.9°C 81% 7.0 mph SW11.3 kmh SW 9.2 mph14.8 kmh 30.11 in1019.6 mb 0.00 in0.0 mm 0.00 in0.0 mm 0.00 in0.0 mm
07:15 AM 44.8°F7.1°C 39.0°F3.9°C 80% 6.3 mph SSE10.1 kmh SSE 8.3 mph13.4 kmh 30.11 in1019.6 mb 0.00 in0.0 mm 0.00 in0.0 mm 0.00 in0.0 mm
06:35 AM 44.6°F7.0°C 39.1°F3.9°C 81% 3.8 mph SSE6.1 kmh SSE 3.8 mph6.1 kmh 30.12 in1020.0 mb 0.00 in0.0 mm 0.00 in0.0 mm 0.00 in0.0 mm
06:05 AM 43.7°F6.5°C 38.9°F3.8°C 83% 1.6 mph S2.6 kmh S 1.6 mph2.6 kmh 30.11 in1019.6 mb 0.00 in0.0 mm 0.00 in0.0 mm 0.00 in0.0 mm
05:35 AM 44.4°F6.9°C 39.3°F4.1°C 82% 1.6 mph W2.6 kmh W 1.6 mph2.6 kmh 30.10 in1019.3 mb 0.00 in0.0 mm 0.00 in0.0 mm 0.00 in0.0 mm
05:05 AM 44.4°F6.9°C 39.3°F4.1°C 82% 5.4 mph S8.7 kmh S 5.4 mph8.7 kmh 30.09 in1019.0 mb 0.00 in0.0 mm 0.00 in0.0 mm 0.00 in0.0 mm
04:35 AM 44.4°F6.9°C 39.6°F4.2°C 83% 5.4 mph S8.7 kmh S 5.4 mph8.7 kmh 30.09 in1019.0 mb 0.00 in0.0 mm 0.00 in0.0 mm 0.00 in0.0 mm
04:05 AM 43.9°F6.6°C 39.1°F3.9°C 83% 3.1 mph SSE5.0 kmh SSE 3.1 mph5.0 kmh 30.10 in1019.3 mb 0.00 in0.0 mm 0.00 in0.0 mm 0.00 in0.0 mm
03:35 AM 44.4°F6.9°C 39.3°F4.1°C 82% Calm Calm -- 30.10 in1019.3 mb 0.00 in0.0 mm 0.00 in0.0 mm 0.00 in0.0 mm
03:05 AM 44.6°F7.0°C 39.4°F4.1°C 82% 3.1 mph SE5.0 kmh SE 3.1 mph5.0 kmh 30.13 in1020.3 mb 0.00 in0.0 mm 0.00 in0.0 mm 0.00 in0.0 mm
02:35 AM 44.2°F6.8°C 39.7°F4.3°C 84% 1.6 mph E2.6 kmh E 1.6 mph2.6 kmh 30.12 in1020.0 mb 0.00 in0.0 mm 0.00 in0.0 mm 0.00 in0.0 mm
02:05 AM 44.2°F6.8°C 39.4°F4.1°C 83% 1.6 mph N2.6 kmh N 1.6 mph2.6 kmh 30.12 in1020.0 mb 0.00 in0.0 mm 0.00 in0.0 mm 0.00 in0.0 mm
01:35 AM 44.1°F6.7°C 39.2°F4.0°C 83% 1.6 mph W2.6 kmh W 1.6 mph2.6 kmh 30.12 in1020.0 mb 0.00 in0.0 mm 0.00 in0.0 mm 0.00 in0.0 mm
01:05 AM 44.4°F6.9°C 39.6°F4.2°C 83% Calm Calm -- 30.11 in1019.6 mb 0.00 in0.0 mm 0.00 in0.0 mm 0.00 in0.0 mm
12:35 AM 44.4°F6.9°C 39.6°F4.2°C 83% 2.2 mph SW3.5 kmh SW 2.2 mph3.5 kmh 30.12 in1020.0 mb 0.00 in0.0 mm 0.00 in0.0 mm 0.00 in0.0 mm
12:05 AM 44.8°F7.1°C 39.0°F3.9°C 80% 2.2 mph NW3.5 kmh NW 2.2 mph3.5 kmh 30.12 in1020.0 mb 0.00 in0.0 mm 0.00 in0.0 mm 0.00 in0.0 mm